createdAt,value
2024-02-13T00:01:15.067Z,1.80
2024-02-13T00:03:43.119Z,1.80
2024-02-13T00:06:11.232Z,1.70
2024-02-13T00:08:45.107Z,1.87
2024-02-13T00:11:15.093Z,1.63
2024-02-13T00:13:44.373Z,1.73
2024-02-13T00:16:12.295Z,1.70
2024-02-13T00:18:40.561Z,2.17
2024-02-13T00:21:09.044Z,1.97
2024-02-13T00:23:37.555Z,1.80
2024-02-13T00:26:08.533Z,1.60
2024-02-13T00:28:36.463Z,1.70
2024-02-13T00:31:05.931Z,1.90
2024-02-13T00:33:34.485Z,2.10
2024-02-13T00:36:02.705Z,2.30
2024-02-13T00:38:31.269Z,2.30
2024-02-13T00:40:59.118Z,1.80
2024-02-13T00:43:29.814Z,1.87
2024-02-13T00:45:58.361Z,2.10
2024-02-13T00:48:27.939Z,2.13
2024-02-13T00:50:56.382Z,1.93
2024-02-13T00:53:24.346Z,1.80
2024-02-13T00:55:52.689Z,1.70
2024-02-13T00:58:20.526Z,2.60
2024-02-13T01:00:50.278Z,1.80
2024-02-13T01:03:18.255Z,1.73
2024-02-13T01:05:46.145Z,2.57
2024-02-13T01:08:14.131Z,1.33
2024-02-13T01:10:41.996Z,1.70
2024-02-13T01:13:09.970Z,1.90
2024-02-13T01:15:37.983Z,1.70
2024-02-13T01:18:07.901Z,1.67
2024-02-13T01:20:36.031Z,2.67
2024-02-13T01:23:04.024Z,2.33
2024-02-13T01:25:32.782Z,1.60
2024-02-13T01:28:00.939Z,1.90
2024-02-13T01:30:28.762Z,1.40
2024-02-13T01:32:56.684Z,2.20
2024-02-13T01:35:26.483Z,1.70
2024-02-13T01:37:54.368Z,1.70
2024-02-13T01:40:22.990Z,1.90
2024-02-13T01:42:50.839Z,1.83
2024-02-13T01:45:18.789Z,1.43
2024-02-13T01:47:46.846Z,1.43
2024-02-13T01:50:19.140Z,1.70
2024-02-13T01:52:48.488Z,1.60
2024-02-13T01:55:17.527Z,2.23
2024-02-13T01:57:45.514Z,1.40
2024-02-13T02:00:14.829Z,1.50
2024-02-13T02:02:43.752Z,1.50
2024-02-13T02:05:12.681Z,1.53
2024-02-13T02:07:42.253Z,1.50
2024-02-13T02:10:11.827Z,1.70
2024-02-13T02:12:40.850Z,1.67
2024-02-13T02:15:10.771Z,1.60
2024-02-13T02:17:38.671Z,1.70
2024-02-13T02:20:08.402Z,1.43
2024-02-13T02:22:36.279Z,1.77
2024-02-13T02:25:09.422Z,1.60
2024-02-13T02:27:37.517Z,1.60
2024-02-13T02:30:07.930Z,1.60
2024-02-13T02:32:35.886Z,1.37
2024-02-13T02:35:03.802Z,1.53
2024-02-13T02:37:33.044Z,1.50
2024-02-13T02:40:00.910Z,1.67
2024-02-13T02:42:30.113Z,1.40
2024-02-13T02:44:58.013Z,1.60
2024-02-13T02:47:25.972Z,1.60
2024-02-13T02:49:53.817Z,1.53
2024-02-13T02:52:21.661Z,1.30
2024-02-13T02:54:49.483Z,1.40
2024-02-13T02:57:17.615Z,1.70
2024-02-13T02:59:47.278Z,1.50
2024-02-13T03:02:15.992Z,1.30
2024-02-13T03:04:43.962Z,1.60
2024-02-13T03:07:11.823Z,1.40
2024-02-13T03:09:39.641Z,1.67
2024-02-13T03:12:08.352Z,1.63
2024-02-13T03:14:36.264Z,1.57
2024-02-13T03:17:07.819Z,2.30
2024-02-13T03:19:35.744Z,1.80
2024-02-13T03:22:03.677Z,1.53
2024-02-13T03:24:31.561Z,1.60
2024-02-13T03:26:59.442Z,1.60
2024-02-13T03:29:28.223Z,1.80
2024-02-13T03:31:56.589Z,1.50
2024-02-13T03:34:26.161Z,1.40
2024-02-13T03:36:54.073Z,1.30
2024-02-13T03:39:22.047Z,1.50
2024-02-13T03:41:49.898Z,1.57
2024-02-13T03:44:17.817Z,1.70
2024-02-13T03:46:45.695Z,1.30
2024-02-13T03:49:13.610Z,1.40
2024-02-13T03:51:42.840Z,1.30
2024-02-13T03:54:10.945Z,1.50
2024-02-13T03:56:39.379Z,1.47
2024-02-13T03:59:11.445Z,2.07
2024-02-13T04:01:40.606Z,1.60
2024-02-13T04:04:09.472Z,1.60
2024-02-13T04:06:37.596Z,1.73
2024-02-13T04:09:08.331Z,1.50
2024-02-13T04:11:36.839Z,1.60
2024-02-13T04:14:04.885Z,1.20
2024-02-13T04:16:32.742Z,1.03
2024-02-13T04:19:00.990Z,1.60
2024-02-13T04:21:28.866Z,1.67
2024-02-13T04:23:56.735Z,1.27
2024-02-13T04:26:36.068Z,1.20
2024-02-13T04:29:05.307Z,1.37
2024-02-13T04:31:33.188Z,1.70
2024-02-13T04:34:01.500Z,1.50
2024-02-13T04:36:29.473Z,1.40
2024-02-13T04:38:57.303Z,1.43
2024-02-13T04:41:26.938Z,1.30
2024-02-13T04:43:55.743Z,1.40
2024-02-13T04:46:26.591Z,1.60
2024-02-13T04:48:55.197Z,1.10
2024-02-13T04:51:25.035Z,1.67
2024-02-13T04:53:53.364Z,1.40
2024-02-13T04:56:21.418Z,1.57
2024-02-13T04:58:56.631Z,1.50
2024-02-13T05:01:24.567Z,1.50
2024-02-13T05:04:06.303Z,1.73
2024-02-13T05:06:51.575Z,1.30
2024-02-13T05:09:19.499Z,1.00
2024-02-13T05:11:47.412Z,1.33
2024-02-13T05:14:17.089Z,1.60
2024-02-13T05:16:44.967Z,1.47
2024-02-13T05:19:13.642Z,1.70
2024-02-13T05:21:42.659Z,1.50
2024-02-13T05:24:10.762Z,1.30
2024-02-13T05:26:38.986Z,1.30
2024-02-13T05:29:06.925Z,1.40
2024-02-13T05:31:37.005Z,1.47
2024-02-13T05:34:05.602Z,1.20
2024-02-13T05:36:34.321Z,1.77
2024-02-13T05:39:03.553Z,1.50
2024-02-13T05:41:31.491Z,1.23
2024-02-13T05:44:03.764Z,1.00
2024-02-13T05:46:31.939Z,1.50
2024-02-13T05:49:01.882Z,1.30
2024-02-13T05:51:29.802Z,1.63
2024-02-13T05:53:59.097Z,1.57
2024-02-13T05:56:28.392Z,1.50
2024-02-13T05:58:59.181Z,1.57
2024-02-13T06:01:27.436Z,1.80
2024-02-13T06:03:58.210Z,1.20
2024-02-13T06:06:28.057Z,2.00
2024-02-13T06:08:56.112Z,1.50
2024-02-13T06:11:24.802Z,1.30
2024-02-13T06:13:52.868Z,1.23
2024-02-13T06:16:20.711Z,1.33
2024-02-13T06:18:48.786Z,1.83
2024-02-13T06:21:21.614Z,1.50
2024-02-13T06:23:52.843Z,1.83
2024-02-13T06:26:20.899Z,1.57
2024-02-13T06:28:50.233Z,1.50
2024-02-13T06:31:18.098Z,1.20
2024-02-13T06:33:46.027Z,1.37
2024-02-13T06:36:14.011Z,1.87
2024-02-13T06:38:41.854Z,1.20
2024-02-13T06:41:12.071Z,1.40
2024-02-13T06:43:40.094Z,1.80
2024-02-13T06:46:07.915Z,1.70
2024-02-13T06:48:36.382Z,1.80
2024-02-13T06:51:04.750Z,1.70
2024-02-13T06:53:33.529Z,1.50
2024-02-13T06:56:01.401Z,1.40
2024-02-13T06:58:30.647Z,1.23
2024-02-13T07:00:58.498Z,1.90
2024-02-13T07:03:26.360Z,1.50
2024-02-13T07:05:57.173Z,1.37
2024-02-13T07:08:25.715Z,1.43
2024-02-13T07:10:55.123Z,1.50
2024-02-13T07:13:23.312Z,1.67
2024-02-13T07:15:53.214Z,1.17
2024-02-13T07:18:21.163Z,1.70
2024-02-13T07:20:49.135Z,1.50
2024-02-13T07:23:17.007Z,1.80
2024-02-13T07:25:44.906Z,1.50
2024-02-13T07:28:12.738Z,1.40
2024-02-13T07:30:40.551Z,2.00
2024-02-13T07:33:10.094Z,4.60
2024-02-13T07:35:38.207Z,4.80
2024-02-13T07:38:06.386Z,3.50
2024-02-13T07:40:34.217Z,3.40
2024-02-13T07:43:02.045Z,3.30
2024-02-13T07:45:30.080Z,3.40
2024-02-13T07:47:58.508Z,3.93
2024-02-13T07:50:28.299Z,2.93
2024-02-13T07:52:56.315Z,3.70
2024-02-13T07:55:24.196Z,3.00
2024-02-13T07:57:53.513Z,3.40
2024-02-13T08:00:22.297Z,3.47
2024-02-13T08:02:50.554Z,3.27
2024-02-13T08:05:19.265Z,3.80
2024-02-13T08:07:48.545Z,2.83
2024-02-13T08:10:16.390Z,3.20
2024-02-13T08:12:44.243Z,2.40
2024-02-13T08:15:12.569Z,2.73
2024-02-13T08:17:40.518Z,2.20
2024-02-13T08:20:10.155Z,3.30
2024-02-13T08:22:39.115Z,3.77
2024-02-13T08:25:09.550Z,3.53
2024-02-13T08:27:38.457Z,3.17
2024-02-13T08:30:11.395Z,2.27
2024-02-13T08:32:42.525Z,3.10
2024-02-13T08:35:11.619Z,2.70
2024-02-13T08:37:40.053Z,2.67
2024-02-13T08:40:10.456Z,3.43
2024-02-13T08:42:38.690Z,3.57
2024-02-13T08:45:07.978Z,3.10
2024-02-13T08:47:35.956Z,3.53
2024-02-13T08:50:04.193Z,2.40
2024-02-13T08:52:32.225Z,2.70
2024-02-13T08:55:00.037Z,2.77
2024-02-13T08:57:29.218Z,3.33
2024-02-13T08:59:57.419Z,3.10
2024-02-13T09:02:25.488Z,2.60
2024-02-13T09:04:53.524Z,2.30
2024-02-13T09:07:21.375Z,2.63
2024-02-13T09:09:49.236Z,3.00
2024-02-13T09:12:17.122Z,2.43
2024-02-13T09:14:46.395Z,2.63
2024-02-13T09:17:15.032Z,2.50
2024-02-13T09:19:44.615Z,2.50
2024-02-13T09:22:15.161Z,2.57
2024-02-13T09:24:45.330Z,2.70
2024-02-13T09:27:13.542Z,3.13
2024-02-13T09:29:41.583Z,2.00
2024-02-13T09:32:11.551Z,2.10
2024-02-13T09:34:39.573Z,3.00
2024-02-13T09:37:08.108Z,2.40
2024-02-13T09:39:35.968Z,2.23
2024-02-13T09:42:04.534Z,3.23
2024-02-13T09:44:33.963Z,2.67
2024-02-13T09:47:02.900Z,3.47
2024-02-13T09:49:32.387Z,2.47
2024-02-13T09:52:00.374Z,2.67
2024-02-13T09:54:28.322Z,2.27
2024-02-13T09:56:56.321Z,2.70
2024-02-13T09:59:25.182Z,2.33
2024-02-13T10:01:53.697Z,2.47
2024-02-13T10:04:21.659Z,3.20
2024-02-13T10:06:52.390Z,2.50
2024-02-13T10:09:20.687Z,2.73
2024-02-13T10:11:50.017Z,2.40
2024-02-13T10:14:20.524Z,2.03
2024-02-13T10:16:51.100Z,2.10
2024-02-13T10:19:19.659Z,2.70
2024-02-13T10:21:50.670Z,2.10
2024-02-13T10:24:20.095Z,2.70
2024-02-13T10:26:48.186Z,2.03
2024-02-13T10:29:16.086Z,2.27
2024-02-13T10:31:46.351Z,2.13
2024-02-13T10:34:14.700Z,2.30
2024-02-13T10:36:45.532Z,2.00
2024-02-13T10:39:14.201Z,2.13
2024-02-13T10:41:45.762Z,2.00
2024-02-13T10:44:15.218Z,2.30
2024-02-13T10:46:44.877Z,2.40
2024-02-13T10:49:18.797Z,2.80
2024-02-13T10:51:46.640Z,2.50
2024-02-13T10:54:16.745Z,2.33
2024-02-13T10:56:46.814Z,2.27
2024-02-13T10:59:14.850Z,2.50
2024-02-13T11:01:43.530Z,2.50
2024-02-13T11:04:11.667Z,2.30
2024-02-13T11:06:39.579Z,2.13
2024-02-13T11:09:13.380Z,3.83
2024-02-13T11:11:46.081Z,2.87
2024-02-13T11:14:18.489Z,3.27
2024-02-13T11:16:53.602Z,2.70
2024-02-13T11:19:22.222Z,3.57
2024-02-13T11:21:52.456Z,2.73
2024-02-13T11:24:23.415Z,2.57
2024-02-13T11:26:52.677Z,3.70
2024-02-13T11:29:23.375Z,2.80
2024-02-13T11:31:59.159Z,2.77
2024-02-13T11:34:43.189Z,3.43
2024-02-13T11:37:21.973Z,1.87
2024-02-13T11:39:50.196Z,2.30
2024-02-13T11:42:20.737Z,3.00
2024-02-13T11:44:50.549Z,2.37
2024-02-13T11:47:21.358Z,2.80
2024-02-13T11:49:50.994Z,2.73
2024-02-13T11:52:19.270Z,2.40
2024-02-13T11:54:47.543Z,2.67
2024-02-13T11:57:16.021Z,2.93
2024-02-13T11:59:45.391Z,2.50
2024-02-13T12:02:15.292Z,2.40
2024-02-13T12:04:44.382Z,2.10
2024-02-13T12:07:12.666Z,2.10
2024-02-13T12:09:41.951Z,1.90
2024-02-13T12:12:10.516Z,2.20
2024-02-13T12:14:40.040Z,2.40
2024-02-13T12:17:09.285Z,2.30
2024-02-13T12:19:38.984Z,1.97
2024-02-13T12:22:10.782Z,2.80
2024-02-13T12:24:40.762Z,1.90
2024-02-13T12:27:11.217Z,2.27
2024-02-13T12:29:40.648Z,2.53
2024-02-13T12:32:11.770Z,1.90
2024-02-13T12:34:40.162Z,2.93
2024-02-13T12:37:09.631Z,2.00
2024-02-13T12:39:38.314Z,2.70
2024-02-13T12:42:12.185Z,2.60
2024-02-13T12:44:40.503Z,2.97
2024-02-13T12:47:09.143Z,2.40
2024-02-13T12:49:40.018Z,2.20
2024-02-13T12:52:08.673Z,2.43
2024-02-13T12:54:36.669Z,2.00
2024-02-13T12:57:04.838Z,2.30
2024-02-13T12:59:39.252Z,2.00
2024-02-13T13:02:09.911Z,2.23
2024-02-13T13:04:39.193Z,1.80
2024-02-13T13:07:07.653Z,1.97
2024-02-13T13:09:37.421Z,2.07
2024-02-13T13:12:09.025Z,2.07
2024-02-13T13:14:39.297Z,2.23
2024-02-13T13:17:08.659Z,2.30
2024-02-13T13:19:36.611Z,1.90
2024-02-13T13:22:06.686Z,1.93
2024-02-13T13:24:34.558Z,2.00
2024-02-13T13:27:02.918Z,2.00
2024-02-13T13:29:31.451Z,2.03
2024-02-13T13:31:59.405Z,2.03
2024-02-13T13:34:29.352Z,2.17
2024-02-13T13:36:58.944Z,1.80
2024-02-13T13:39:31.167Z,2.73
2024-02-13T13:42:09.673Z,2.17
2024-02-13T13:44:38.507Z,2.00
2024-02-13T13:47:06.670Z,2.17
2024-02-13T13:49:36.297Z,2.00
2024-02-13T13:52:07.132Z,1.53
2024-02-13T13:54:36.501Z,2.27
2024-02-13T13:57:04.380Z,1.70
2024-02-13T13:59:32.984Z,2.10
2024-02-13T14:02:01.779Z,2.70
2024-02-13T14:04:30.223Z,2.80
2024-02-13T14:06:58.156Z,2.33
2024-02-13T14:09:26.013Z,2.00
2024-02-13T14:11:55.304Z,2.20
2024-02-13T14:14:23.305Z,3.03
2024-02-13T14:16:52.451Z,2.00
2024-02-13T14:19:20.738Z,2.07
2024-02-13T14:21:49.614Z,2.47
2024-02-13T14:24:17.472Z,2.53
2024-02-13T14:26:45.412Z,2.53
2024-02-13T14:29:14.639Z,2.00
2024-02-13T14:31:43.372Z,2.80
2024-02-13T14:34:11.762Z,2.37
2024-02-13T14:36:42.657Z,1.93
2024-02-13T14:39:18.334Z,1.73
2024-02-13T14:41:50.589Z,2.23
2024-02-13T14:44:19.868Z,2.30
2024-02-13T14:46:47.720Z,2.50
2024-02-13T14:49:15.683Z,2.30
2024-02-13T14:51:43.988Z,1.70
2024-02-13T14:54:13.581Z,1.90
2024-02-13T14:56:42.809Z,2.10
2024-02-13T14:59:11.970Z,1.70
2024-02-13T15:01:42.073Z,2.23
2024-02-13T15:04:09.987Z,2.10
2024-02-13T15:06:39.861Z,2.27
2024-02-13T15:09:11.416Z,1.70
2024-02-13T15:11:40.039Z,2.00
2024-02-13T15:14:09.306Z,2.10
2024-02-13T15:16:37.126Z,1.97
2024-02-13T15:19:07.641Z,2.07
2024-02-13T15:21:35.713Z,2.80
2024-02-13T15:24:05.052Z,1.80
2024-02-13T15:26:34.439Z,2.23
2024-02-13T15:29:02.404Z,1.97
2024-02-13T15:31:30.251Z,2.63
2024-02-13T15:33:58.263Z,1.50
2024-02-13T15:36:34.298Z,1.87
2024-02-13T15:39:33.952Z,2.50
2024-02-13T15:42:19.525Z,1.90
2024-02-13T15:45:04.848Z,2.07
2024-02-13T15:47:34.908Z,1.63
2024-02-13T15:50:06.515Z,1.93
2024-02-13T15:52:36.726Z,2.00
2024-02-13T15:55:04.639Z,1.30
2024-02-13T15:57:32.826Z,1.90
2024-02-13T16:00:00.771Z,1.80
2024-02-13T16:02:29.188Z,1.90
2024-02-13T16:04:56.998Z,1.70
2024-02-13T16:07:26.587Z,2.20
2024-02-13T16:09:55.902Z,1.90
2024-02-13T16:12:23.802Z,1.50
2024-02-13T16:14:52.178Z,1.77
2024-02-13T16:17:20.890Z,1.80
2024-02-13T16:19:48.907Z,2.17
2024-02-13T16:22:16.916Z,2.10
2024-02-13T16:24:44.754Z,2.00
2024-02-13T16:27:14.910Z,1.70
2024-02-13T16:29:42.819Z,2.27
2024-02-13T16:32:13.095Z,1.70
2024-02-13T16:34:42.919Z,1.70
2024-02-13T16:37:12.246Z,1.30
2024-02-13T16:39:40.131Z,1.77
2024-02-13T16:42:08.188Z,1.60
2024-02-13T16:44:37.483Z,1.80
2024-02-13T16:47:06.279Z,1.47
2024-02-13T16:49:35.190Z,1.37
2024-02-13T16:52:03.549Z,2.10
2024-02-13T16:54:31.543Z,1.83
2024-02-13T16:57:00.293Z,1.70
2024-02-13T16:59:28.409Z,1.90
2024-02-13T17:01:58.494Z,1.80
2024-02-13T17:04:27.757Z,2.07
2024-02-13T17:06:55.782Z,1.83
2024-02-13T17:09:23.720Z,1.70
2024-02-13T17:11:52.220Z,1.70
2024-02-13T17:14:20.543Z,1.33
2024-02-13T17:16:48.708Z,1.70
2024-02-13T17:19:18.091Z,2.30
2024-02-13T17:21:46.465Z,2.37
2024-02-13T17:24:14.391Z,1.90
2024-02-13T17:26:42.513Z,2.07
2024-02-13T17:29:11.204Z,2.00
2024-02-13T17:31:39.019Z,1.93
2024-02-13T17:34:07.095Z,1.70
2024-02-13T17:36:36.528Z,1.40
2024-02-13T17:39:06.437Z,2.33
2024-02-13T17:41:34.431Z,1.77
2024-02-13T17:44:02.348Z,2.40
2024-02-13T17:46:30.161Z,1.50
2024-02-13T17:48:58.162Z,2.20
2024-02-13T17:51:26.125Z,1.70
2024-02-13T17:53:56.305Z,1.90
2024-02-13T17:56:25.064Z,1.60
2024-02-13T17:58:52.917Z,2.20
2024-02-13T18:01:20.741Z,1.77
2024-02-13T18:03:48.679Z,1.93
2024-02-13T18:06:16.725Z,1.60
2024-02-13T18:08:45.353Z,2.03
2024-02-13T18:11:15.416Z,1.77
2024-02-13T18:13:43.214Z,1.60
2024-02-13T18:16:11.705Z,1.60
2024-02-13T18:18:39.693Z,1.70
2024-02-13T18:21:08.178Z,1.67
2024-02-13T18:23:36.165Z,2.00
2024-02-13T18:26:05.730Z,2.07
2024-02-13T18:28:34.941Z,2.23
2024-02-13T18:31:04.578Z,2.10
2024-02-13T18:33:32.601Z,2.40
2024-02-13T18:36:00.671Z,2.27
2024-02-13T18:38:28.575Z,2.30
2024-02-13T18:40:57.518Z,2.80
2024-02-13T18:43:27.088Z,2.53
2024-02-13T18:45:56.619Z,2.30
2024-02-13T18:48:25.092Z,2.03
2024-02-13T18:50:53.211Z,2.73
2024-02-13T18:53:23.826Z,2.80
2024-02-13T18:55:51.802Z,2.63
2024-02-13T18:58:19.656Z,2.53
2024-02-13T19:00:47.531Z,2.10
2024-02-13T19:03:18.380Z,2.23
2024-02-13T19:05:46.342Z,2.30
2024-02-13T19:08:15.022Z,3.00
2024-02-13T19:10:43.217Z,2.40
2024-02-13T19:13:11.095Z,2.37
2024-02-13T19:15:38.897Z,2.47
2024-02-13T19:18:11.244Z,2.10
2024-02-13T19:20:40.559Z,2.43
2024-02-13T19:23:08.709Z,2.30
2024-02-13T19:25:36.573Z,1.90
2024-02-13T19:28:05.027Z,2.83
2024-02-13T19:30:32.846Z,2.30
2024-02-13T19:33:00.719Z,2.93
2024-02-13T19:35:28.973Z,2.00
2024-02-13T19:37:58.435Z,2.07
2024-02-13T19:40:26.275Z,2.80
2024-02-13T19:42:54.205Z,2.10
2024-02-13T19:45:22.698Z,2.70
2024-02-13T19:47:50.682Z,2.50
2024-02-13T19:50:18.676Z,2.13
2024-02-13T19:52:46.561Z,1.70
2024-02-13T19:55:17.038Z,2.43
2024-02-13T19:57:44.869Z,2.03
2024-02-13T20:00:14.051Z,2.30
2024-02-13T20:02:43.416Z,2.00
2024-02-13T20:05:11.352Z,2.40
2024-02-13T20:07:39.678Z,1.70
2024-02-13T20:10:08.386Z,1.97
2024-02-13T20:12:37.563Z,2.30
2024-02-13T20:15:06.861Z,2.10
2024-02-13T20:17:34.923Z,1.90
2024-02-13T20:20:04.914Z,2.03
2024-02-13T20:22:32.759Z,2.10
2024-02-13T20:25:00.558Z,1.90
2024-02-13T20:27:28.391Z,2.23
2024-02-13T20:29:57.628Z,2.13
2024-02-13T20:32:25.678Z,1.90
2024-02-13T20:34:53.836Z,2.00
2024-02-13T20:37:21.977Z,2.03
2024-02-13T20:39:50.681Z,2.70
2024-02-13T20:42:21.147Z,2.63
2024-02-13T20:44:49.004Z,2.00
2024-02-13T20:47:18.201Z,1.50
2024-02-13T20:49:46.062Z,2.00
2024-02-13T20:52:15.335Z,1.93
2024-02-13T20:54:43.303Z,1.80
2024-02-13T20:57:11.158Z,1.57
2024-02-13T20:59:39.107Z,2.00
2024-02-13T21:02:07.379Z,2.07
2024-02-13T21:04:36.830Z,1.97
2024-02-13T21:07:06.117Z,2.10
2024-02-13T21:09:34.153Z,1.93
2024-02-13T21:12:02.080Z,2.07
2024-02-13T21:14:30.216Z,1.70
2024-02-13T21:16:58.828Z,2.00
2024-02-13T21:19:27.300Z,1.70
2024-02-13T21:22:14.275Z,1.53
2024-02-13T21:24:42.113Z,1.70
2024-02-13T21:27:09.975Z,2.00
2024-02-13T21:29:37.990Z,1.97
2024-02-13T21:32:06.257Z,1.80
2024-02-13T21:34:35.102Z,1.93
2024-02-13T21:37:04.408Z,1.67
2024-02-13T21:39:33.205Z,1.80
2024-02-13T21:42:01.160Z,1.60
2024-02-13T21:44:29.475Z,1.50
2024-02-13T21:46:57.307Z,1.90
2024-02-13T21:49:25.278Z,1.63
2024-02-13T21:51:53.931Z,1.67
2024-02-13T21:54:23.191Z,1.53
2024-02-13T21:56:51.603Z,2.30
2024-02-13T21:59:20.852Z,1.50
2024-02-13T22:01:48.810Z,1.57
2024-02-13T22:04:16.656Z,2.20
2024-02-13T22:06:44.575Z,1.60
2024-02-13T22:09:13.224Z,1.37
2024-02-13T22:11:42.798Z,1.50
2024-02-13T22:14:10.915Z,1.73
2024-02-13T22:16:38.809Z,1.53
2024-02-13T22:19:07.129Z,1.70
2024-02-13T22:21:35.171Z,1.87
2024-02-13T22:24:04.874Z,1.80
2024-02-13T22:26:38.107Z,1.50
2024-02-13T22:29:08.215Z,1.60
2024-02-13T22:31:36.150Z,1.70
2024-02-13T22:34:06.759Z,1.47
2024-02-13T22:36:34.878Z,1.80
2024-02-13T22:39:02.845Z,1.73
2024-02-13T22:41:31.078Z,3.03
2024-02-13T22:43:59.260Z,1.97
2024-02-13T22:46:28.459Z,2.33
2024-02-13T22:48:56.387Z,2.10
2024-02-13T22:51:24.270Z,1.83
2024-02-13T22:53:52.216Z,1.60
2024-02-13T22:56:20.438Z,1.80
2024-02-13T22:58:48.269Z,2.07
2024-02-13T23:01:16.293Z,1.80
2024-02-13T23:03:45.608Z,1.50
2024-02-13T23:06:13.562Z,2.10
2024-02-13T23:08:41.667Z,1.70
2024-02-13T23:11:11.113Z,1.80
2024-02-13T23:13:44.278Z,2.20
2024-02-13T23:16:15.718Z,1.50
2024-02-13T23:18:45.046Z,1.77
2024-02-13T23:21:13.053Z,1.67
2024-02-13T23:23:41.030Z,1.90
2024-02-13T23:26:09.054Z,1.90
2024-02-13T23:28:48.293Z,1.53
2024-02-13T23:31:23.737Z,1.93
2024-02-13T23:33:53.768Z,1.37
2024-02-13T23:36:21.887Z,1.70
2024-02-13T23:38:50.352Z,1.70
2024-02-13T23:41:18.226Z,1.40
2024-02-13T23:43:46.664Z,1.50
2024-02-13T23:46:14.544Z,1.20
2024-02-13T23:48:42.788Z,1.87
2024-02-13T23:51:13.080Z,1.20
2024-02-13T23:53:40.987Z,1.60
2024-02-13T23:56:09.126Z,1.43
2024-02-13T23:58:37.079Z,1.50
